Terminal Aerodrome Forecast
Issued by NWS

Home | Current Version | Previous Version | Graphics & Text | Print | Product List | Glossary On
Versions: 1 2 3 4 5 6 7 8 9 10 11 12 13 14 15 16 17
000
FTUS43 KMPX 252338
TAFAXN
TAF
KAXN 252338Z 2600/2624 11009KT P6SM BKN025
     FM260300 10008KT P6SM OVC018
     FM260800 09006KT P6SM OVC008
     FM261200 08005KT P6SM OVC005
     FM261800 04006KT P6SM OVC009
     FM262100 36005KT P6SM OVC015=

USA.gov is the U.S. government's official web portal to all federal, state and local government web resources and services.